Jasper, Minnesota
Current Conditions -  °F | °C
As of 9:54 PM on Saturday 20 Dec 2014 (Local Time) from KPQN Reporting Station
Moderate Fog Moderate Fog  
Wind Chill: 22°   Ceiling: 100
Heat Index: 28°   Visibility: 0.5mi
Dew Point: 28°   Wind: 6mph
Humidity: 100%   Direction: 200°SSW
Pressure: 29.96"   Gusts: NA
Location:  43.85°N, 96.4°W
Report Text: KPQN 210354Z AUTO 20005KT 1/2SM FZFG OVC001 M02/M02 A2996 RMK AO2
Loading
Personal Weather Stations






























Interactive Weather Map New forecast layout! Learn more

10-Day Weather Forecast

Advertisements
Track Severe Weather on mobile